Latest Weather Observations for Moomba Airport

IDS60801

Issued at 3:51 am CST Tuesday 20 August 2019 (issued every 10 minutes, with the page automatically refreshed every 10 minutes)

About weather observations | Map of weather stations | Latest weather observations for SA | Other Formats
Station Details ID: 017123 Name: MOOMBA AIRPORT Lat: -28.10 Lon: 140.20 Height: 37.8 m
Data from the previous 72 hours. | See also: Recent months at Moomba Airport
Date/Time
CST
Temp
°C
App
Temp
°C
Dew
Point
°C
Rel
Hum
%
Delta-T
°C
Wind Press
QNH
hPa
Press
MSL
hPa
Rain since
9am
mm
Dir  Spd
km/h
Gust
km/h
Spd
kts
Gust
kts
20/03:30am 4.3 -0.6 -7.2 43 3.6 SSW 11 15 6 8 1031.3 1031.3 0.0
20/03:00am 6.5 1.4 -5.5 42 4.0 S 13 17 7 9 1031.3 1031.3 0.0
20/02:30am 8.2 3.1 -4.9 39 4.5 S 13 20 7 11 1031.5 1031.5 0.0
20/02:00am 8.2 2.7 -5.3 38 4.7 SSE 15 20 8 11 1031.7 1031.7 0.0
20/01:30am 9.1 4.8 -4.8 37 4.9 SE 9 11 5 6 1031.7 1031.7 0.0
20/01:00am 8.8 3.3 -5.4 36 5.0 SSE 15 20 8 11 1031.5 1031.5 0.0
20/12:30am 8.9 3.0 -5.7 35 5.0 S 17 20 9 11 1031.4 1031.4 0.0
20/12:00am 9.1 3.9 -5.9 34 5.1 S 13 15 7 8 1031.3 1031.3 0.0
 
Date/Time
CST
Temp
°C
App
Temp
°C
Dew
Point
°C
Rel
Hum
%
Delta-T
°C
Wind Press
QNH
hPa
Press
MSL
hPa
Rain since
9am
mm
Dir  Spd
km/h
Gust
km/h
Spd
kts
Gust
kts
19/11:30pm 9.9 4.0 -6.0 32 5.5 S 17 22 9 12 1031.2 1031.2 0.0
19/11:00pm 10.8 4.9 -6.1 30 5.9 SSE 17 22 9 12 1031.5 1031.5 0.0
19/10:30pm 10.8 4.3 -5.6 31 5.8 SSE 20 24 11 13 1031.6 1031.6 0.0
19/10:00pm 11.0 4.1 -5.9 30 6.0 SSE 22 28 12 15 1031.3 1031.3 0.0
19/09:30pm 10.7 4.1 -6.6 29 5.9 S 20 26 11 14 1031.4 1031.4 0.0
19/09:00pm 9.4 4.1 -6.8 31 5.4 S 13 15 7 8 1031.4 1031.4 0.0
19/08:30pm 10.1 4.9 -6.7 30 5.7 S 13 17 7 9 1031.2 1031.2 0.0
19/08:00pm 10.7 5.5 -6.1 30 5.9 S 13 17 7 9 1031.1 1031.1 0.0
19/07:30pm 11.4 6.6 -6.0 29 6.1 S 11 17 6 9 1030.7 1030.7 0.0
19/07:00pm 12.6 6.7 -5.9 27 6.7 S 17 22 9 12 1030.2 1030.2 0.0
19/06:30pm 13.4 7.1 -6.2 25 7.0 S 19 24 10 13 1029.7 1029.7 0.0
19/06:00pm 14.1 7.6 -6.1 24 7.3 S 20 26 11 14 1029.3 1029.3 0.0
19/05:30pm 14.8 7.5 -6.1 23 7.7 S 24 32 13 17 1028.9 1028.9 0.0
19/05:00pm 15.3 7.7 -5.1 24 7.7 S 26 37 14 20 1028.5 1028.4 0.0
19/04:30pm 15.6 8.0 -6.0 22 8.0 S 26 35 14 19 1028.2 1028.1 0.0
19/04:00pm 15.7 8.5 -5.3 23 8.0 S 24 32 13 17 1028.1 1028.0 0.0
19/03:30pm 16.1 8.8 -6.2 21 8.3 S 24 33 13 18 1027.9 1027.8 0.0
19/03:00pm 15.7 7.7 -5.3 23 7.9 SSE 28 39 15 21 1027.8 1027.7 0.0
19/02:30pm 15.9 8.8 -4.1 25 7.7 S 24 35 13 19 1027.8 1027.7 0.0
19/02:00pm 15.6 9.0 -3.3 27 7.5 SSE 22 33 12 18 1028.1 1028.0 0.0
19/01:30pm 15.2 8.2 -3.2 28 7.2 SSE 24 39 13 21 1028.3 1028.2 0.0
19/01:00pm 14.8 7.9 -3.0 29 7.0 S 24 39 13 21 1028.7 1028.7 0.0
19/12:30pm 14.7 7.7 -3.6 28 7.1 S 24 33 13 18 1029.1 1029.1 0.0
19/12:00pm 14.1 6.6 -4.6 27 7.0 S 26 35 14 19 1029.4 1029.4 0.0
19/11:30am 13.9 6.4 -4.8 27 7.0 S 26 35 14 19 1029.7 1029.7 0.0
19/11:00am 13.2 5.4 -3.5 31 6.4 S 28 35 15 19 1029.9 1029.9 0.0
19/10:30am 12.4 4.8 -2.2 36 5.7 S 28 39 15 21 1030.0 1030.0 0.0
19/10:00am 11.3 3.0 -1.5 41 5.0 S 32 41 17 22 1030.2 1030.2 0.0
19/09:30am 10.6 3.3 0.1 48 4.2 S 28 39 15 21 1030.1 1030.1 0.0
19/09:00am 9.5 3.8 0.7 54 3.5 S 20 28 11 15 1029.8 1029.8 0.0
19/08:30am 8.2 2.5 0.4 58 3.1 SSW 20 28 11 15 1029.3 1029.3 0.0
19/08:00am 7.5 2.4 0.7 62 2.7 SSW 17 24 9 13 1028.8 1028.8 0.0
19/07:30am 6.3 1.5 0.2 65 2.3 SSW 15 20 8 11 1028.1 1028.0 0.0
19/07:00am 5.6 1.2 0.2 68 2.1 SSW 13 19 7 10 1027.4 1027.3 0.0
19/06:30am 5.6 0.8 0.2 68 2.1 SSW 15 17 8 9 1026.9 1026.8 0.0
19/06:00am 6.0 1.2 0.3 67 2.2 SSW 15 19 8 10 1026.2 1026.1 0.0
19/05:30am 6.7 1.9 0.4 64 2.5 SSW 15 20 8 11 1025.6 1025.5 0.0
19/05:00am 7.3 1.8 0.5 62 2.7 SSW 19 24 10 13 1025.2 1025.1 0.0
19/04:30am 7.5 1.9 0.0 59 2.9 SW 19 24 10 13 1024.7 1024.6 0.0
19/04:00am 7.9 2.1 -0.3 56 3.2 SW 20 24 11 13 1024.3 1024.2 0.0
19/03:30am 8.4 2.5 -0.6 53 3.5 SW 20 24 11 13 1024.0 1024.0 0.0
19/03:00am 8.8 2.9 -0.5 52 3.6 SW 20 26 11 14 1023.8 1023.8 0.0
19/02:30am 9.4 2.0 -0.5 50 3.9 SW 28 33 15 18 1023.9 1023.9 0.0
19/02:00am 9.7 3.8 -1.1 47 4.2 SW 20 28 11 15 1023.9 1023.9 0.0
19/01:30am 10.3 3.6 -1.1 45 4.5 SW 24 32 13 17 1024.0 1024.0 0.0
19/01:00am 10.8 4.3 -2.6 39 5.1 SW 22 30 12 16 1024.0 1024.0 0.0
19/12:30am 10.5 4.0 -5.5 32 5.7 SW 20 24 11 13 1023.8 1023.8 0.0
19/12:00am 11.1 4.3 -5.4 31 5.9 SW 22 28 12 15 1023.5 1023.5 0.0
 
Date/Time
CST
Temp
°C
App
Temp
°C
Dew
Point
°C
Rel
Hum
%
Delta-T
°C
Wind Press
QNH
hPa
Press
MSL
hPa
Rain since
9am
mm
Dir  Spd
km/h
Gust
km/h
Spd
kts
Gust
kts
18/11:30pm 11.2 5.0 -5.3 31 5.9 WSW 19 35 10 19 1023.2 1023.2 0.0
18/11:29pm 11.2 5.0 -5.3 31 5.9 W 19 35 10 19 1023.1 1023.1 0.0
18/11:00pm 10.1 5.0 -5.4 33 5.5 W 13 15 7 8 1022.7 1022.7 0.0
18/10:30pm 11.1 6.0 -5.4 31 5.9 W 13 17 7 9 1022.6 1022.6 0.0
18/10:00pm 11.5 6.0 -5.4 30 6.1 W 15 17 8 9 1022.6 1022.6 0.0
18/09:30pm 12.3 6.4 -5.2 29 6.4 W 17 19 9 10 1022.3 1022.3 0.0
18/09:00pm 12.3 6.8 -5.2 29 6.4 W 15 17 8 9 1022.2 1022.2 0.0
18/08:30pm 13.8 7.9 -5.3 26 7.1 WSW 17 20 9 11 1021.9 1021.9 0.0
18/08:00pm 14.8 9.0 -5.0 25 7.5 WSW 17 22 9 12 1021.5 1021.5 0.0
18/07:30pm 15.3 8.6 -4.6 25 7.6 SW 22 28 12 15 1021.1 1021.1 0.0
18/07:00pm 15.8 9.0 -4.7 24 7.9 WSW 22 28 12 15 1020.5 1020.5 0.0
18/06:30pm 16.6 8.3 -5.2 22 8.3 WSW 30 37 16 20 1019.9 1019.9 0.0
18/06:00pm 17.0 9.3 -6.8 19 8.8 WSW 26 35 14 19 1019.4 1019.4 0.0
18/05:30pm 17.9 9.4 -6.7 18 9.3 WSW 30 39 16 21 1018.8 1018.8 0.0
18/05:00pm 18.6 9.9 -4.8 20 9.3 WSW 32 41 17 22 1018.3 1018.3 0.0
18/04:33pm 19.3 10.4 -5.6 18 9.8 WSW 33 52 18 28 1017.8 1017.8 0.0
18/04:30pm 19.3 9.7 -4.9 19 9.6 WSW 37 52 20 28 1017.8 1017.8 0.0
18/04:04pm 19.5 9.4 -6.2 17 10.0 WSW 39 50 21 27 1017.5 1017.5 0.0
18/04:00pm 19.7 10.0 -6.0 17 10.0 WSW 37 50 20 27 1017.4 1017.4 0.0
18/03:49pm 20.0 10.2 -6.5 16 10.3 WSW 37 52 20 28 1017.3 1017.3 0.0
18/03:30pm 20.4 10.3 -6.2 16 10.4 WSW 39 52 21 28 1017.1 1017.1 0.0
18/03:26pm 20.2 10.1 -5.6 17 10.2 WSW 39 52 21 28 1017.2 1017.2 0.0
18/03:12pm 20.7 10.6 -6.0 16 10.5 WSW 39 50 21 27 1017.0 1017.0 0.0
18/03:00pm 20.7 11.0 -5.2 17 10.4 WSW 37 54 20 29 1017.0 1017.0 0.0
18/02:36pm 20.7 10.8 -3.7 19 10.1 WSW 39 50 21 27 1017.0 1017.0 0.0
18/02:30pm 20.5 10.8 -1.9 22 9.6 WSW 39 50 21 27 1016.9 1016.9 0.0
18/02:03pm 21.0 11.4 -1.5 22 9.7 WSW 39 54 21 29 1017.1 1017.1 0.0
18/02:00pm 20.6 11.0 -1.8 22 9.6 WSW 39 54 21 29 1017.1 1017.1 0.0
18/01:30pm 21.2 11.6 -1.3 22 9.8 WSW 39 46 21 25 1017.1 1017.1 0.0
18/01:22pm 20.7 11.2 -0.6 24 9.4 WSW 39 50 21 27 1017.1 1017.1 0.0
18/01:00pm 20.8 11.3 -1.1 23 9.5 WSW 39 56 21 30 1017.1 1017.1 0.0
18/12:30pm 20.8 11.0 0.1 25 9.2 SW 41 56 22 30 1017.3 1017.3 0.0
18/12:00pm 20.3 10.2 0.2 26 8.9 SW 43 56 23 30 1017.5 1017.5 0.0
18/11:30am 20.6 12.0 0.4 26 9.0 SW 35 48 19 26 1017.7 1017.7 0.0
18/11:00am 19.8 10.5 0.8 28 8.5 SW 39 50 21 27 1017.6 1017.6 0.0
18/10:30am 19.3 11.4 2.2 32 7.8 SW 33 43 18 23 1017.6 1017.6 0.0
18/10:00am 18.3 8.9 2.2 34 7.3 SW 41 54 22 29 1017.5 1017.5 0.0
18/09:30am 17.7 9.5 2.5 36 6.9 SW 35 46 19 25 1017.0 1017.0 0.0
18/09:00am 16.9 8.4 2.9 39 6.4 SW 37 46 20 25 1016.8 1016.8 0.0
18/08:30am 16.6 8.6 1.5 36 6.7 SW 33 43 18 23 1016.6 1016.6 0.0
18/08:20am 16.5 8.9 0.6 34 6.9 SW 30 46 16 25 1016.3 1016.3 0.0
18/08:00am 16.3 9.5 -2.2 28 7.6 WSW 24 30 13 16 1016.0 1016.0 0.0
18/07:30am 15.1 8.7 -7.0 21 8.0 WNW 19 24 10 13 1015.4 1015.4 0.0
18/07:00am 15.0 8.4 -6.5 22 7.9 NW 20 24 11 13 1014.7 1014.7 0.0
18/06:30am 15.1 8.6 -5.9 23 7.8 NW 20 22 11 12 1014.3 1014.3 0.0
18/06:00am 14.8 8.4 -5.0 25 7.5 WNW 20 28 11 15 1014.2 1014.2 0.0
18/05:39am 14.0 6.6 -3.7 29 6.8 W 26 43 14 23 1013.9 1013.9 0.0
18/05:30am 13.2 6.5 -4.4 29 6.6 N 22 24 12 13 1012.7 1012.7 0.0
18/05:00am 13.5 7.2 -4.2 29 6.7 N 20 24 11 13 1012.2 1012.2 0.0
18/04:30am 13.0 6.6 -4.6 29 6.6 N 20 22 11 12 1011.9 1011.9 0.0
18/04:00am 14.3 7.6 -4.4 27 7.1 NNE 22 26 12 14 1011.9 1011.9 0.0
18/03:30am 13.9 7.5 -4.8 27 7.0 NNE 20 22 11 12 1011.9 1011.9 0.0
18/03:00am 12.9 6.7 -5.1 28 6.7 NNE 19 20 10 11 1012.1 1012.1 0.0
18/02:30am 13.2 7.3 -5.9 26 7.0 NNE 17 20 9 11 1012.5 1012.5 0.0
18/02:00am 13.3 7.0 -6.3 25 7.1 NNE 19 22 10 12 1012.8 1012.8 0.0
18/01:30am 13.8 7.2 -6.9 23 7.4 NNE 20 24 11 13 1013.1 1013.1 0.0
18/01:00am 14.4 7.8 -7.0 22 7.7 NNE 20 20 11 11 1013.7 1013.7 0.0
18/12:30am 14.9 8.5 -6.6 22 7.9 NNE 19 20 10 11 1014.1 1014.1 0.0
18/12:00am 15.4 9.4 -6.2 22 8.0 NNE 17 19 9 10 1014.3 1014.3 0.0
 
Date/Time
CST
Temp
°C
App
Temp
°C
Dew
Point
°C
Rel
Hum
%
Delta-T
°C
Wind Press
QNH
hPa
Press
MSL
hPa
Rain since
9am
mm
Dir  Spd
km/h
Gust
km/h
Spd
kts
Gust
kts
17/11:30pm 15.2 9.6 -6.3 22 7.9 NNE 15 17 8 9 1014.6 1014.6 0.0
17/11:00pm 15.5 9.6 -6.1 22 8.0 NNE 17 19 9 10 1014.8 1014.8 0.0
17/10:30pm 16.0 10.5 -5.7 22 8.2 NNE 15 17 8 9 1014.9 1014.9 0.0
17/10:00pm 16.7 11.5 -5.7 21 8.5 NNE 13 17 7 9 1015.0 1015.0 0.0
17/09:30pm 16.9 11.8 -5.5 21 8.6 NNE 13 15 7 8 1015.2 1015.2 0.0
17/09:00pm 17.4 12.2 -5.8 20 8.9 NNE 13 15 7 8 1015.2 1015.2 0.0
17/08:30pm 18.0 12.8 -6.6 18 9.3 NNE 13 15 7 8 1015.1 1015.1 0.0
17/08:00pm 18.7 13.4 -6.8 17 9.7 NNE 13 15 7 8 1015.0 1015.0 0.0
17/07:30pm 19.5 14.3 -6.2 17 10.0 NNE 13 13 7 7 1014.9 1014.9 0.0
17/07:00pm 21.3 16.6 -5.5 16 10.7 NNE 11 13 6 7 1014.7 1014.7 0.0
17/06:30pm 21.3 16.9 -5.5 16 10.7 NNE 9 11 5 6 1014.6 1014.6 0.0
17/06:00pm 23.4 19.4 -5.6 14 11.8 NNE 7 9 4 5 1014.5 1014.5 0.0
17/05:30pm 25.3 21.0 -5.1 13 12.8 N 9 11 5 6 1014.4 1014.4 0.0
17/05:00pm 26.7 21.6 -5.0 12 13.5 N 13 20 7 11 1014.1 1014.1 0.0
17/04:56pm 26.7 20.9 -5.0 12 13.5 N 17 20 9 11 1014.1 1014.1 0.0
17/04:30pm 27.1 21.2 -5.9 11 13.9 N 17 26 9 14 1014.2 1014.2 0.0
17/04:26pm 27.3 21.4 -5.7 11 14.0 N 17 26 9 14 1014.2 1014.2 0.0
17/04:02pm 27.3 21.4 -5.7 11 14.0 N 17 22 9 12 1014.2 1014.2 0.0
17/04:00pm 27.5 21.6 -5.6 11 14.0 N 17 22 9 12 1014.2 1014.2 0.0
17/03:30pm 27.4 21.4 -6.9 10 14.2 NNW 17 24 9 13 1014.2 1014.2 0.0
17/03:28pm 27.6 22.0 -6.7 10 14.3 NNW 15 22 8 12 1014.1 1014.1 0.0
17/03:17pm 27.5 21.1 -6.8 10 14.2 N 19 26 10 14 1014.2 1014.2 0.0
17/03:00pm 27.7 21.3 -6.6 10 14.3 NNW 19 26 10 14 1014.3 1014.3 0.0
17/02:30pm 27.1 21.1 -7.1 10 14.1 NW 17 26 9 14 1014.7 1014.7 0.0
17/02:09pm 28.0 22.0 -6.4 10 14.5 NNW 17 28 9 15 1014.8 1014.8 0.0
17/02:05pm 27.8 22.6 -6.6 10 14.4 NNW 13 28 7 15 1014.9 1014.9 0.0
17/02:00pm 27.9 22.7 -6.5 10 14.4 NNW 13 22 7 12 1015.0 1015.0 0.0
17/01:30pm 27.3 21.7 -6.9 10 14.1 NW 15 26 8 14 1015.3 1015.3 0.0
17/01:08pm 27.1 21.1 -7.1 10 14.1 N 17 26 9 14 1015.8 1015.8 0.0
17/01:00pm 27.7 21.7 -6.6 10 14.3 N 17 22 9 12 1015.9 1015.9 0.0
17/12:30pm 26.9 20.5 -7.2 10 14.0 N 19 24 10 13 1016.5 1016.5 0.0
17/12:00pm 26.6 20.9 -7.5 10 13.8 NNE 15 22 8 12 1017.1 1017.1 0.0
17/11:30am 26.3 20.0 -10.5 8 14.1 NE 17 22 9 12 1017.5 1017.5 0.0
17/11:00am 24.9 17.9 -11.6 8 13.5 NE 20 24 11 13 1017.7 1017.7 0.0
17/10:30am 24.0 16.9 -13.9 7 13.3 NE 20 24 11 13 1017.9 1017.9 0.0
17/10:00am 21.5 14.5 -12.7 9 11.9 NE 20 22 11 12 1018.3 1018.3 0.0
17/09:30am 19.4 13.5 -17.3 7 11.4 NE 13 17 7 9 1018.4 1018.4 0.0
17/09:22am 18.0 11.7 -16.7 8 10.7 ENE 15 19 8 10 1018.4 1018.4 0.0
17/09:04am 16.3 10.4 -16.6 9 9.9 ENE 13 17 7 9 1018.5 1018.5 0.0
17/09:00am 16.2 10.7 -15.4 10 9.7 ENE 11 15 6 8 1018.6 1018.6 0.0
17/08:30am 13.6 8.3 -12.5 15 8.2 E 11 13 6 7 1018.6 1018.6 0.0
17/08:14am 13.0 8.1 -12.2 16 7.9 ESE 9 11 5 6 1018.8 1018.8 0.0
17/08:02am 12.4 7.9 -11.9 17 7.6 SE 7 11 4 6 1018.8 1018.8 0.0
17/08:00am 12.0 7.5 -12.3 17 7.5 SE 7 11 4 6 1018.8 1018.8 0.0
17/07:53am 11.7 7.1 -12.5 17 7.4 SE 7 11 4 6 1018.7 1018.7 0.0
17/07:30am 10.2 5.3 -12.4 19 6.8 ESE 9 11 5 6 1018.5 1018.5 0.0
17/07:26am 10.0 5.1 -12.5 19 6.7 ESE 9 11 5 6 1018.4 1018.4 0.0
17/07:00am 8.4 3.1 -12.6 21 6.1 ESE 11 15 6 8 1018.2 1018.2 0.0
17/06:30am 9.4 3.7 -12.4 20 6.5 NE 13 13 7 7 1017.9 1017.9 0.0
17/06:00am 8.5 3.2 -12.0 22 6.1 ENE 11 13 6 7 1017.8 1017.8 0.0
17/05:30am 8.8 3.1 -12.3 21 6.2 ENE 13 15 7 8 1017.7 1017.7 0.0
17/05:00am 10.1 5.2 -11.8 20 6.7 ESE 9 11 5 6 1017.6 1017.6 0.0
17/04:30am 11.3 6.1 -10.8 20 7.0 SE 11 17 6 9 1017.5 1017.5 0.0
17/04:00am 10.9 5.3 -11.1 20 6.9 SSE 13 20 7 11 1017.7 1017.7 0.0

Other formats

Comma delimited format used in spreadsheet applications
http://www.bom.gov.au/fwo/IDS60801/IDS60801.95481.axf

JavaScript Object Notation format (JSON) in row-major order
http://www.bom.gov.au/fwo/IDS60801/IDS60801.95481.json

Data quality

Most of these data are generated automatically and are frequently updated. Quality checks on data are not normally performed. It is possible for incorrect values to appear. Refer to information at About Latest Weather Observations and please check the disclaimer before using these data.